Park Rapids, Minnesota
Current Conditions -  °F | °C
As of 10:53 AM on Saturday 25 Oct 2014 (Local Time) from KPKD Reporting Station
Clear Clear  
Wind Chill: 11°   Ceiling: Unl
Heat Index: 11°   Visibility: 10mi
Dew Point: -2°   Wind: 23mph
Humidity: 41%   Direction: 300°WNW
Pressure: 30.03"   Gusts: 35mph
Location:  46.92°N, 95.06°W
Report Text: KPKD 251553Z AUTO 30020G30KT 10SM CLR 11/M02 A3003 RMK AO2 PK WND 31030/1552 SLP173 T01111017 TSNO
Loading
Personal Weather Stations






























Interactive Weather Map New forecast layout! Learn more

10-Day Weather Forecast

Advertisements
Track Severe Weather on mobile